createdAt,value
2023-05-17T00:01:45.389Z,101602.31
2023-05-17T00:04:11.871Z,101614.22
2023-05-17T00:06:38.411Z,101612.50
2023-05-17T00:09:04.890Z,101616.97
2023-05-17T00:11:31.684Z,101608.28
2023-05-17T00:13:58.118Z,101610.00
2023-05-17T00:16:24.574Z,101604.50
2023-05-17T00:18:51.322Z,101612.28
2023-05-17T00:21:17.936Z,101608.88
2023-05-17T00:23:44.499Z,101606.72
2023-05-17T00:26:11.001Z,101606.25
2023-05-17T00:28:37.482Z,101605.81
2023-05-17T00:31:03.926Z,101606.59
2023-05-17T00:33:30.511Z,101614.59
2023-05-17T00:35:57.114Z,101615.41
2023-05-17T00:38:23.578Z,101621.94
2023-05-17T00:40:50.701Z,101628.50
2023-05-17T00:43:17.130Z,101615.78
2023-05-17T00:45:43.601Z,101617.88
2023-05-17T00:48:10.243Z,101629.28
2023-05-17T00:50:36.781Z,101627.13
2023-05-17T00:53:03.425Z,101630.44
2023-05-17T00:55:30.695Z,101633.59
2023-05-17T00:57:57.543Z,101635.03
2023-05-17T01:00:24.339Z,101638.84
2023-05-17T01:02:50.961Z,101637.53
2023-05-17T01:05:17.766Z,101638.97
2023-05-17T01:07:44.238Z,101637.47
2023-05-17T01:10:11.306Z,101638.03
2023-05-17T01:12:55.650Z,101639.84
2023-05-17T01:15:32.927Z,101648.22
2023-05-17T01:18:20.922Z,101640.50
2023-05-17T01:20:49.004Z,101646.31
2023-05-17T01:23:49.771Z,101652.56
2023-05-17T01:26:19.480Z,101659.22
2023-05-17T01:28:52.278Z,101662.69
2023-05-17T01:31:18.723Z,101656.09
2023-05-17T01:33:45.601Z,101668.69
2023-05-17T01:36:12.139Z,101669.25
2023-05-17T01:38:38.596Z,101671.53
2023-05-17T01:41:16.550Z,101674.84
2023-05-17T01:43:56.853Z,101671.78
2023-05-17T01:46:33.871Z,101672.72
2023-05-17T01:49:19.467Z,101685.13
2023-05-17T01:51:50.801Z,101681.25
2023-05-17T01:54:23.080Z,101679.91
2023-05-17T01:57:01.516Z,101676.00
2023-05-17T01:59:31.533Z,101682.06
2023-05-17T02:02:07.258Z,101679.19
2023-05-17T02:04:33.715Z,101679.56
2023-05-17T02:07:00.200Z,101686.44
2023-05-17T02:09:26.663Z,101683.91
2023-05-17T02:11:53.179Z,101691.66
2023-05-17T02:14:19.638Z,101690.81
2023-05-17T02:16:46.116Z,101697.16
2023-05-17T02:19:13.362Z,101700.94
2023-05-17T02:21:39.979Z,101698.19
2023-05-17T02:24:06.890Z,101706.81
2023-05-17T02:26:33.377Z,101697.03
2023-05-17T02:29:00.139Z,101696.34
2023-05-17T02:31:26.762Z,101693.28
2023-05-17T02:33:56.421Z,101699.16
2023-05-17T02:36:22.992Z,101706.03
2023-05-17T02:38:49.431Z,101707.28
2023-05-17T02:41:15.952Z,101716.91
2023-05-17T02:43:42.501Z,101699.44
2023-05-17T02:46:08.976Z,101708.06
2023-05-17T02:48:35.720Z,101707.19
2023-05-17T02:51:02.166Z,101712.84
2023-05-17T02:53:28.582Z,101722.16
2023-05-17T02:55:58.013Z,101711.34
2023-05-17T02:58:25.305Z,101718.91
2023-05-17T03:00:52.088Z,101722.19
2023-05-17T03:03:18.762Z,101712.44
2023-05-17T03:05:45.385Z,101708.81
2023-05-17T03:08:11.833Z,101714.97
2023-05-17T03:10:38.356Z,101712.22
2023-05-17T03:13:04.763Z,101712.22
2023-05-17T03:15:31.673Z,101704.00
2023-05-17T03:17:58.510Z,101710.50
2023-05-17T03:20:25.090Z,101709.69
2023-05-17T03:22:51.579Z,101724.94
2023-05-17T03:25:18.130Z,101719.06
2023-05-17T03:27:44.606Z,101722.50
2023-05-17T03:30:11.391Z,101722.16
2023-05-17T03:32:40.420Z,101724.69
2023-05-17T03:35:08.274Z,101723.50
2023-05-17T03:37:34.847Z,101733.25
2023-05-17T03:40:01.306Z,101727.94
2023-05-17T03:42:27.816Z,101730.34
2023-05-17T03:44:54.337Z,101726.38
2023-05-17T03:47:23.879Z,101738.88
2023-05-17T03:49:50.585Z,101740.38
2023-05-17T03:52:17.092Z,101734.72
2023-05-17T03:54:43.525Z,101735.22
2023-05-17T03:57:09.970Z,101742.91
2023-05-17T03:59:36.395Z,101744.28
2023-05-17T04:02:02.860Z,101741.81
2023-05-17T04:04:29.417Z,101744.88
2023-05-17T04:06:55.950Z,101747.94
2023-05-17T04:09:22.375Z,101749.28
2023-05-17T04:11:48.816Z,101746.19
2023-05-17T04:14:15.316Z,101751.13
2023-05-17T04:16:41.746Z,101754.53
2023-05-17T04:19:08.447Z,101758.44
2023-05-17T04:21:35.355Z,101758.75
2023-05-17T04:24:02.221Z,101761.81
2023-05-17T04:26:28.998Z,101757.28
2023-05-17T04:28:55.532Z,101758.41
2023-05-17T04:31:22.379Z,101760.25
2023-05-17T04:33:48.826Z,101759.53
2023-05-17T04:36:15.842Z,101763.41
2023-05-17T04:38:42.557Z,101762.66
2023-05-17T04:41:09.511Z,101768.28
2023-05-17T04:43:36.377Z,101766.00
2023-05-17T04:46:02.867Z,101773.03
2023-05-17T04:48:32.066Z,101773.50
2023-05-17T04:51:04.098Z,101778.63
2023-05-17T04:53:31.303Z,101777.88
2023-05-17T04:55:58.346Z,101777.59
2023-05-17T04:58:24.888Z,101778.59
2023-05-17T05:00:52.417Z,101780.78
2023-05-17T05:03:19.011Z,101773.66
2023-05-17T05:05:45.690Z,101792.91
2023-05-17T05:08:12.247Z,101792.19
2023-05-17T05:10:38.714Z,101794.53
2023-05-17T05:13:05.193Z,101791.63
2023-05-17T05:15:32.649Z,101791.03
2023-05-17T05:17:59.213Z,101791.97
2023-05-17T05:20:27.833Z,101800.22
2023-05-17T05:22:54.734Z,101804.13
2023-05-17T05:25:21.179Z,101801.00
2023-05-17T05:27:47.709Z,101796.50
2023-05-17T05:30:21.876Z,101802.88
2023-05-17T05:32:50.058Z,101801.16
2023-05-17T05:35:17.287Z,101803.84
2023-05-17T05:37:44.364Z,101820.56
2023-05-17T05:40:11.653Z,101829.84
2023-05-17T05:42:38.092Z,101825.13
2023-05-17T05:45:05.059Z,101825.78
2023-05-17T05:47:31.599Z,101832.13
2023-05-17T05:49:58.111Z,101819.50
2023-05-17T05:52:24.598Z,101818.06
2023-05-17T05:54:51.010Z,101819.41
2023-05-17T05:57:17.451Z,101833.84
2023-05-17T05:59:43.874Z,101838.97
2023-05-17T06:02:10.402Z,101842.38
2023-05-17T06:04:45.348Z,101842.59
2023-05-17T06:07:13.293Z,101836.88
2023-05-17T06:09:40.027Z,101854.25
2023-05-17T06:12:06.650Z,101846.47
2023-05-17T06:14:33.316Z,101848.19
2023-05-17T06:16:59.808Z,101849.50
2023-05-17T06:19:26.991Z,101856.91
2023-05-17T06:21:53.596Z,101853.22
2023-05-17T06:24:20.178Z,101862.97
2023-05-17T06:26:47.263Z,101858.63
2023-05-17T06:29:13.707Z,101855.47
2023-05-17T06:31:41.330Z,101856.13
2023-05-17T06:34:07.988Z,101851.94
2023-05-17T06:36:35.935Z,101856.88
2023-05-17T06:39:04.141Z,101859.81
2023-05-17T06:41:30.762Z,101868.75
2023-05-17T06:43:57.246Z,101857.34
2023-05-17T06:46:23.858Z,101866.28
2023-05-17T06:48:51.238Z,101865.91
2023-05-17T06:51:18.114Z,101863.41
2023-05-17T06:53:44.596Z,101866.06
2023-05-17T06:56:11.192Z,101868.41
2023-05-17T06:58:37.722Z,101868.69
2023-05-17T07:01:04.374Z,101870.41
2023-05-17T07:03:30.943Z,101877.63
2023-05-17T07:05:57.460Z,101873.19
2023-05-17T07:08:23.915Z,101881.63
2023-05-17T07:10:53.792Z,101881.44
2023-05-17T07:13:20.737Z,101880.13
2023-05-17T07:15:47.275Z,101886.84
2023-05-17T07:18:13.933Z,101894.47
2023-05-17T07:20:40.505Z,101904.00
2023-05-17T07:23:07.779Z,101895.72
2023-05-17T07:25:34.401Z,101894.66
2023-05-17T07:28:01.126Z,101899.34
2023-05-17T07:30:27.581Z,101902.56
2023-05-17T07:32:54.118Z,101893.22
2023-05-17T07:35:21.861Z,101893.34
2023-05-17T07:37:48.767Z,101889.97
2023-05-17T07:40:15.513Z,101884.16
2023-05-17T07:42:42.138Z,101891.47
2023-05-17T07:45:09.337Z,101895.09
2023-05-17T07:47:35.925Z,101890.50
2023-05-17T07:50:04.114Z,101894.00
2023-05-17T07:52:30.577Z,101885.81
2023-05-17T07:54:57.086Z,101897.94
2023-05-17T07:57:23.650Z,101896.78
2023-05-17T07:59:50.093Z,101896.25
2023-05-17T08:02:16.551Z,101893.31
2023-05-17T08:04:43.076Z,101887.44
2023-05-17T08:07:09.783Z,101894.31
2023-05-17T08:09:36.237Z,101884.75
2023-05-17T08:12:02.714Z,101892.91
2023-05-17T08:14:29.284Z,101880.41
2023-05-17T08:16:55.725Z,101888.13
2023-05-17T08:19:22.469Z,101890.75
2023-05-17T08:21:49.408Z,101892.94
2023-05-17T08:24:16.147Z,101896.16
2023-05-17T08:26:42.629Z,101899.81
2023-05-17T08:29:11.458Z,101893.00
2023-05-17T08:31:37.968Z,101884.88
2023-05-17T08:34:04.782Z,101898.09
2023-05-17T08:36:31.279Z,101885.63
2023-05-17T08:38:58.029Z,101884.78
2023-05-17T08:41:24.576Z,101886.75
2023-05-17T08:43:51.799Z,101893.56
2023-05-17T08:46:21.745Z,101882.75
2023-05-17T08:48:51.849Z,101880.59
2023-05-17T08:51:20.627Z,101880.81
2023-05-17T08:53:48.109Z,101892.69
2023-05-17T08:56:17.497Z,101897.44
2023-05-17T08:58:56.197Z,101883.47
2023-05-17T09:01:25.873Z,101887.81
2023-05-17T09:03:52.811Z,101875.94
2023-05-17T09:06:23.673Z,101874.22
2023-05-17T09:08:54.965Z,101881.91
2023-05-17T09:11:35.000Z,101882.34
2023-05-17T09:14:06.081Z,101883.59
2023-05-17T09:16:35.299Z,101869.53
2023-05-17T09:19:04.288Z,101872.78
2023-05-17T09:21:31.786Z,101867.50
2023-05-17T09:24:06.964Z,101876.00
2023-05-17T09:26:43.366Z,101871.72
2023-05-17T09:29:11.490Z,101867.50
2023-05-17T09:31:38.487Z,101881.34
2023-05-17T09:34:07.118Z,101870.91
2023-05-17T09:36:36.172Z,101885.81
2023-05-17T09:39:10.707Z,101883.91
2023-05-17T09:41:48.301Z,101885.41
2023-05-17T09:44:15.762Z,101879.44
2023-05-17T09:46:47.865Z,101888.16
2023-05-17T09:49:15.415Z,101884.53
2023-05-17T09:51:47.466Z,101884.97
2023-05-17T09:54:13.990Z,101882.78
2023-05-17T09:56:41.116Z,101872.06
2023-05-17T09:59:15.576Z,101862.63
2023-05-17T10:01:45.139Z,101862.63
2023-05-17T10:04:13.236Z,101864.16
2023-05-17T10:09:14.234Z,101874.13
2023-05-17T10:11:45.849Z,101860.56
2023-05-17T10:14:31.926Z,101847.09
2023-05-17T10:16:59.015Z,101867.88
2023-05-17T10:19:26.525Z,101865.38
2023-05-17T10:21:53.946Z,101860.38
2023-05-17T10:24:24.032Z,101852.03
2023-05-17T10:26:51.302Z,101859.06
2023-05-17T10:29:20.870Z,101844.41
2023-05-17T10:31:48.788Z,101842.53
2023-05-17T10:34:16.815Z,101824.44
2023-05-17T10:36:49.530Z,101828.41
2023-05-17T10:39:16.750Z,101835.31
2023-05-17T10:41:46.480Z,101826.50
2023-05-17T10:44:16.072Z,101828.47
2023-05-17T10:46:52.711Z,101814.72
2023-05-17T10:49:24.148Z,101818.34
2023-05-17T10:51:51.655Z,101824.00
2023-05-17T10:54:18.796Z,101811.97
2023-05-17T10:56:49.150Z,101808.94
2023-05-17T10:59:24.368Z,101814.94
2023-05-17T11:01:57.863Z,101795.63
2023-05-17T11:04:38.926Z,101798.75
2023-05-17T11:07:17.942Z,101802.50
2023-05-17T11:09:46.238Z,101787.50
2023-05-17T11:12:14.390Z,101786.63
2023-05-17T11:14:54.389Z,101783.19
2023-05-17T11:17:23.912Z,101779.66
2023-05-17T11:20:25.842Z,101774.00
2023-05-17T11:22:56.421Z,101782.00
2023-05-17T11:25:23.066Z,101775.72
2023-05-17T11:27:51.846Z,101770.06
2023-05-17T11:30:23.221Z,101777.44
2023-05-17T11:32:52.237Z,101779.22
2023-05-17T11:35:19.875Z,101763.97
2023-05-17T11:37:46.497Z,101764.28
2023-05-17T11:40:14.823Z,101757.88
2023-05-17T11:42:41.894Z,101759.66
2023-05-17T11:45:08.845Z,101754.91
2023-05-17T11:47:39.519Z,101761.63
2023-05-17T11:50:07.353Z,101752.81
2023-05-17T11:52:34.430Z,101748.31
2023-05-17T11:55:01.492Z,101755.53
2023-05-17T11:57:32.283Z,101754.94
2023-05-17T12:00:00.420Z,101760.75
2023-05-17T12:02:31.556Z,101764.94
2023-05-17T12:04:58.396Z,101764.44
2023-05-17T12:07:25.968Z,101751.28
2023-05-17T12:09:53.023Z,101756.91
2023-05-17T12:12:22.486Z,101753.38
2023-05-17T12:14:50.502Z,101742.72
2023-05-17T12:17:27.435Z,101755.25
2023-05-17T12:19:54.569Z,101760.44
2023-05-17T12:22:21.397Z,101756.06
2023-05-17T12:24:47.897Z,101750.69
2023-05-17T12:27:14.418Z,101751.91
2023-05-17T12:29:41.092Z,101759.88
2023-05-17T12:32:10.217Z,101758.47
2023-05-17T12:34:36.982Z,101746.09
2023-05-17T12:37:05.056Z,101753.47
2023-05-17T12:39:31.757Z,101764.13
2023-05-17T12:41:58.915Z,101754.56
2023-05-17T12:44:25.489Z,101749.75
2023-05-17T12:46:56.132Z,101743.47
2023-05-17T12:49:23.064Z,101752.28
2023-05-17T12:51:52.448Z,101753.38
2023-05-17T12:54:29.475Z,101746.50
2023-05-17T12:56:56.487Z,101740.25
2023-05-17T12:59:25.647Z,101740.66
2023-05-17T13:01:55.806Z,101738.94
2023-05-17T13:04:33.796Z,101737.69
2023-05-17T13:07:02.621Z,101741.03
2023-05-17T13:09:33.218Z,101734.53
2023-05-17T13:12:07.577Z,101741.19
2023-05-17T13:17:25.244Z,101727.00
2023-05-17T13:19:52.552Z,101737.25
2023-05-17T13:22:19.491Z,101733.75
2023-05-17T13:24:46.062Z,101734.41
2023-05-17T13:27:13.054Z,101729.69
2023-05-17T13:29:42.121Z,101734.00
2023-05-17T13:32:13.666Z,101736.66
2023-05-17T13:34:41.372Z,101726.88
2023-05-17T13:37:11.588Z,101749.75
2023-05-17T13:39:39.121Z,101727.84
2023-05-17T13:42:05.942Z,101728.00
2023-05-17T13:44:32.582Z,101726.47
2023-05-17T13:46:59.086Z,101720.50
2023-05-17T13:49:26.086Z,101714.91
2023-05-17T13:51:52.513Z,101712.13
2023-05-17T13:54:20.735Z,101708.69
2023-05-17T13:56:48.529Z,101710.72
2023-05-17T13:59:14.984Z,101713.16
2023-05-17T14:01:41.918Z,101709.81
2023-05-17T14:04:08.591Z,101717.38
2023-05-17T14:06:35.148Z,101713.41
2023-05-17T14:09:01.663Z,101707.28
2023-05-17T14:11:28.216Z,101713.97
2023-05-17T14:13:54.789Z,101720.38
2023-05-17T14:16:22.874Z,101704.03
2023-05-17T14:18:49.829Z,101719.34
2023-05-17T14:21:16.571Z,101710.03
2023-05-17T14:23:43.027Z,101709.38
2023-05-17T14:26:09.663Z,101702.63
2023-05-17T14:28:38.268Z,101694.56
2023-05-17T14:31:09.372Z,101699.78
2023-05-17T14:33:36.154Z,101708.66
2023-05-17T14:36:04.020Z,101684.53
2023-05-17T14:38:31.056Z,101686.16
2023-05-17T14:40:58.980Z,101687.94
2023-05-17T14:43:25.626Z,101690.09
2023-05-17T14:45:52.075Z,101691.72
2023-05-17T14:48:18.665Z,101681.91
2023-05-17T14:50:45.240Z,101682.59
2023-05-17T14:53:11.914Z,101679.84
2023-05-17T14:55:38.447Z,101677.16
2023-05-17T14:58:04.974Z,101685.31
2023-05-17T15:00:31.483Z,101683.63
2023-05-17T15:02:58.181Z,101688.59
2023-05-17T15:05:25.057Z,101683.66
2023-05-17T15:07:52.791Z,101683.09
2023-05-17T15:10:19.548Z,101691.63
2023-05-17T15:12:46.029Z,101687.53
2023-05-17T15:15:12.955Z,101682.19
2023-05-17T15:17:39.462Z,101685.00
2023-05-17T15:20:07.472Z,101668.53
2023-05-17T15:22:34.109Z,101677.06
2023-05-17T15:25:00.571Z,101671.44
2023-05-17T15:27:27.076Z,101688.03
2023-05-17T15:29:53.533Z,101676.81
2023-05-17T15:32:20.029Z,101681.31
2023-05-17T15:34:46.740Z,101681.28
2023-05-17T15:37:13.272Z,101687.78
2023-05-17T15:39:39.694Z,101675.19
2023-05-17T15:42:06.182Z,101669.06
2023-05-17T15:44:32.658Z,101669.63
2023-05-17T15:47:01.462Z,101675.31
2023-05-17T15:49:29.628Z,101678.69
2023-05-17T15:51:56.355Z,101674.75
2023-05-17T15:54:22.831Z,101668.00
2023-05-17T15:56:49.324Z,101680.59
2023-05-17T15:59:16.107Z,101674.09
2023-05-17T16:01:45.986Z,101675.81
2023-05-17T16:04:13.509Z,101675.84
2023-05-17T16:06:40.205Z,101681.78
2023-05-17T16:09:06.845Z,101667.41
2023-05-17T16:11:33.365Z,101678.41
2023-05-17T16:13:59.907Z,101671.66
2023-05-17T16:16:26.414Z,101673.63
2023-05-17T16:18:53.314Z,101668.00
2023-05-17T16:21:20.020Z,101672.44
2023-05-17T16:23:46.584Z,101684.28
2023-05-17T16:26:13.249Z,101674.75
2023-05-17T16:28:40.120Z,101684.25
2023-05-17T16:31:06.704Z,101674.63
2023-05-17T16:33:34.736Z,101687.22
2023-05-17T16:36:02.194Z,101693.75
2023-05-17T16:38:28.661Z,101692.72
2023-05-17T16:40:55.286Z,101694.84
2023-05-17T16:43:22.050Z,101681.59
2023-05-17T16:45:49.926Z,101698.34
2023-05-17T16:48:17.526Z,101696.03
2023-05-17T16:50:44.217Z,101709.47
2023-05-17T16:53:10.844Z,101699.78
2023-05-17T16:55:38.117Z,101699.41
2023-05-17T16:58:05.039Z,101708.94
2023-05-17T17:00:32.094Z,101712.31
2023-05-17T17:02:59.442Z,101712.41
2023-05-17T17:05:29.172Z,101706.13
2023-05-17T17:07:55.775Z,101712.81
2023-05-17T17:10:22.318Z,101702.75
2023-05-17T17:12:49.358Z,101714.94
2023-05-17T17:15:16.000Z,101708.91
2023-05-17T17:17:42.726Z,101710.50
2023-05-17T17:20:09.910Z,101707.88
2023-05-17T17:22:36.384Z,101708.09
2023-05-17T17:25:03.301Z,101721.47
2023-05-17T17:27:29.745Z,101717.50
2023-05-17T17:29:56.236Z,101726.25
2023-05-17T17:32:22.720Z,101731.75
2023-05-17T17:34:49.246Z,101734.41
2023-05-17T17:37:15.963Z,101730.56
2023-05-17T17:39:42.528Z,101735.19
2023-05-17T17:42:10.089Z,101733.25
2023-05-17T17:44:36.780Z,101735.91
2023-05-17T17:47:03.479Z,101738.47
2023-05-17T17:49:30.193Z,101740.88
2023-05-17T17:51:58.085Z,101738.84
2023-05-17T17:54:24.707Z,101739.81
2023-05-17T17:56:51.143Z,101744.16
2023-05-17T17:59:17.630Z,101746.50
2023-05-17T18:01:44.292Z,101752.16
2023-05-17T18:04:13.379Z,101748.41
2023-05-17T18:06:41.790Z,101746.97
2023-05-17T18:09:08.308Z,101747.53
2023-05-17T18:11:34.881Z,101748.50
2023-05-17T18:14:02.499Z,101748.34
2023-05-17T18:16:29.153Z,101753.34
2023-05-17T18:18:55.993Z,101752.28
2023-05-17T18:21:22.565Z,101758.25
2023-05-17T18:23:49.001Z,101755.78
2023-05-17T18:26:15.500Z,101762.53
2023-05-17T18:28:43.082Z,101759.00
2023-05-17T18:31:10.118Z,101769.81
2023-05-17T18:33:36.609Z,101767.41
2023-05-17T18:36:03.359Z,101770.13
2023-05-17T18:38:29.903Z,101761.22
2023-05-17T18:40:56.496Z,101769.03
2023-05-17T18:43:23.102Z,101772.38
2023-05-17T18:45:51.349Z,101768.47
2023-05-17T18:48:18.074Z,101772.88
2023-05-17T18:50:44.559Z,101767.44
2023-05-17T18:53:12.827Z,101775.66
2023-05-17T18:55:39.412Z,101781.81
2023-05-17T18:58:05.924Z,101787.47
2023-05-17T19:00:32.971Z,101784.81
2023-05-17T19:02:59.584Z,101790.69
2023-05-17T19:05:26.043Z,101793.78
2023-05-17T19:07:52.532Z,101799.44
2023-05-17T19:10:20.609Z,101802.06
2023-05-17T19:12:47.313Z,101801.50
2023-05-17T19:15:13.846Z,101813.47
2023-05-17T19:17:40.603Z,101815.00
2023-05-17T19:20:07.913Z,101813.75
2023-05-17T19:22:35.790Z,101806.75
2023-05-17T19:25:02.527Z,101822.53
2023-05-17T19:27:29.378Z,101817.19
2023-05-17T19:29:56.044Z,101813.81
2023-05-17T19:32:22.890Z,101817.63
2023-05-17T19:34:49.944Z,101813.38
2023-05-17T19:37:16.659Z,101811.25
2023-05-17T19:39:43.133Z,101815.69
2023-05-17T19:42:09.567Z,101819.72
2023-05-17T19:44:36.273Z,101820.53
2023-05-17T19:47:02.718Z,101821.38
2023-05-17T19:49:29.158Z,101823.69
2023-05-17T19:52:00.523Z,101831.09
2023-05-17T19:54:30.202Z,101831.88
2023-05-17T19:56:57.203Z,101823.75
2023-05-17T19:59:23.778Z,101826.50
2023-05-17T20:01:51.221Z,101825.13
2023-05-17T20:04:17.856Z,101833.41
2023-05-17T20:06:44.746Z,101839.75
2023-05-17T20:09:11.469Z,101838.00
2023-05-17T20:11:38.080Z,101830.69
2023-05-17T20:14:04.632Z,101843.16
2023-05-17T20:16:31.238Z,101838.22
2023-05-17T20:18:58.536Z,101839.00
2023-05-17T20:21:26.355Z,101845.75
2023-05-17T20:23:56.850Z,101844.44
2023-05-17T20:26:26.975Z,101852.84
2023-05-17T20:28:53.690Z,101855.84
2023-05-17T20:31:20.516Z,101857.28
2023-05-17T20:33:47.045Z,101856.16
2023-05-17T20:36:14.586Z,101852.94
2023-05-17T20:38:42.651Z,101857.34
2023-05-17T20:41:11.115Z,101864.97
2023-05-17T20:43:37.727Z,101854.13
2023-05-17T20:46:07.601Z,101861.75
2023-05-17T20:48:34.395Z,101858.97
2023-05-17T20:51:01.198Z,101864.00
2023-05-17T20:53:30.922Z,101867.47
2023-05-17T20:55:58.389Z,101869.16
2023-05-17T20:58:24.924Z,101872.59
2023-05-17T21:00:52.875Z,101874.28
2023-05-17T21:03:19.562Z,101873.44
2023-05-17T21:05:46.524Z,101875.34
2023-05-17T21:08:14.000Z,101879.78
2023-05-17T21:10:42.760Z,101874.56
2023-05-17T21:13:09.635Z,101876.91
2023-05-17T21:15:36.638Z,101889.25
2023-05-17T21:18:03.727Z,101884.59
2023-05-17T21:20:30.822Z,101886.31
2023-05-17T21:22:57.325Z,101885.47
2023-05-17T21:25:23.942Z,101885.00
2023-05-17T21:27:51.173Z,101893.47
2023-05-17T21:30:17.687Z,101886.63
2023-05-17T21:32:44.278Z,101889.78
2023-05-17T21:35:10.865Z,101892.09
2023-05-17T21:37:39.937Z,101896.47
2023-05-17T21:40:08.024Z,101905.50
2023-05-17T21:42:34.665Z,101898.47
2023-05-17T21:45:01.263Z,101910.94
2023-05-17T21:47:27.877Z,101908.78
2023-05-17T21:49:54.807Z,101907.09
2023-05-17T21:52:21.286Z,101908.53
2023-05-17T21:54:47.896Z,101908.91
2023-05-17T21:57:14.357Z,101912.44
2023-05-17T21:59:40.909Z,101912.53
2023-05-17T22:02:08.641Z,101909.03
2023-05-17T22:04:35.327Z,101904.50
2023-05-17T22:07:01.996Z,101911.13
2023-05-17T22:09:28.442Z,101909.81
2023-05-17T22:11:58.680Z,101917.81
2023-05-17T22:14:25.896Z,101915.81
2023-05-17T22:16:56.023Z,101910.38
2023-05-17T22:19:23.477Z,101914.75
2023-05-17T22:21:50.363Z,101913.59
2023-05-17T22:24:16.901Z,101919.69
2023-05-17T22:26:43.498Z,101915.78
2023-05-17T22:29:10.070Z,101914.66
2023-05-17T22:31:37.815Z,101920.03
2023-05-17T22:34:04.879Z,101929.72
2023-05-17T22:36:32.224Z,101926.84
2023-05-17T22:38:59.119Z,101926.75
2023-05-17T22:41:26.500Z,101921.63
2023-05-17T22:43:53.413Z,101928.53
2023-05-17T22:46:20.159Z,101926.53
2023-05-17T22:48:46.632Z,101920.03
2023-05-17T22:51:13.088Z,101916.09
2023-05-17T22:53:39.569Z,101914.28
2023-05-17T22:56:06.546Z,101919.28
2023-05-17T22:58:33.000Z,101914.69
2023-05-17T23:00:59.567Z,101914.41
2023-05-17T23:03:26.370Z,101916.16
2023-05-17T23:06:02.099Z,101917.94
2023-05-17T23:08:30.067Z,101911.81
2023-05-17T23:10:58.233Z,101923.53
2023-05-17T23:13:25.935Z,101916.00
2023-05-17T23:15:52.507Z,101922.59
2023-05-17T23:18:19.185Z,101924.00
2023-05-17T23:20:46.342Z,101911.31
2023-05-17T23:23:16.127Z,101914.78
2023-05-17T23:25:44.741Z,101915.69
2023-05-17T23:28:11.531Z,101929.94
2023-05-17T23:30:39.834Z,101918.81
2023-05-17T23:33:06.499Z,101922.09
2023-05-17T23:35:33.016Z,101923.47
2023-05-17T23:37:59.824Z,101924.03
2023-05-17T23:40:26.443Z,101919.72
2023-05-17T23:42:52.947Z,101927.28
2023-05-17T23:45:19.493Z,101927.66
2023-05-17T23:47:47.614Z,101928.00
2023-05-17T23:50:14.546Z,101936.56
2023-05-17T23:52:41.008Z,101934.19
2023-05-17T23:55:07.931Z,101936.63
2023-05-17T23:57:35.333Z,101931.44
